sensor_id;sensor_type;location;lat;lon;timestamp;P1;durP1;ratioP1;P2;durP2;ratioP2
13388;SDS011;6764;53.250;10.410;2022-12-07T00:00:27;12.07;;;10.20;;
13388;SDS011;6764;53.250;10.410;2022-12-07T00:02:53;12.37;;;10.57;;
13388;SDS011;6764;53.250;10.410;2022-12-07T00:05:18;12.80;;;10.53;;
13388;SDS011;6764;53.250;10.410;2022-12-07T00:07:44;12.90;;;11.33;;
13388;SDS011;6764;53.250;10.410;2022-12-07T00:10:10;18.90;;;10.50;;
13388;SDS011;6764;53.250;10.410;2022-12-07T00:12:35;13.37;;;10.50;;
13388;SDS011;6764;53.250;10.410;2022-12-07T00:15:01;13.23;;;10.23;;
13388;SDS011;6764;53.250;10.410;2022-12-07T00:17:27;11.67;;;10.47;;
13388;SDS011;6764;53.250;10.410;2022-12-07T00:19:52;12.67;;;11.37;;
13388;SDS011;6764;53.250;10.410;2022-12-07T00:22:18;13.17;;;11.77;;
13388;SDS011;6764;53.250;10.410;2022-12-07T00:24:44;12.60;;;9.90;;
13388;SDS011;6764;53.250;10.410;2022-12-07T00:27:09;13.00;;;10.73;;
13388;SDS011;6764;53.250;10.410;2022-12-07T00:29:35;11.53;;;10.27;;
13388;SDS011;6764;53.250;10.410;2022-12-07T00:32:02;10.93;;;9.70;;
13388;SDS011;6764;53.250;10.410;2022-12-07T00:34:28;12.53;;;10.20;;
13388;SDS011;6764;53.250;10.410;2022-12-07T00:36:53;11.43;;;10.23;;
13388;SDS011;6764;53.250;10.410;2022-12-07T00:39:19;11.60;;;10.40;;
13388;SDS011;6764;53.250;10.410;2022-12-07T00:41:45;13.00;;;10.67;;
13388;SDS011;6764;53.250;10.410;2022-12-07T00:44:10;11.57;;;10.03;;
13388;SDS011;6764;53.250;10.410;2022-12-07T00:46:36;12.20;;;10.20;;
13388;SDS011;6764;53.250;10.410;2022-12-07T00:49:02;12.37;;;10.60;;
13388;SDS011;6764;53.250;10.410;2022-12-07T00:51:28;12.13;;;9.73;;
13388;SDS011;6764;53.250;10.410;2022-12-07T00:53:54;13.37;;;10.83;;
13388;SDS011;6764;53.250;10.410;2022-12-07T00:56:23;11.53;;;10.03;;
13388;SDS011;6764;53.250;10.410;2022-12-07T00:58:51;13.73;;;10.47;;
13388;SDS011;6764;53.250;10.410;2022-12-07T01:01:18;12.13;;;10.83;;
13388;SDS011;6764;53.250;10.410;2022-12-07T01:03:44;14.50;;;11.33;;
13388;SDS011;6764;53.250;10.410;2022-12-07T01:06:09;13.20;;;10.53;;
13388;SDS011;6764;53.250;10.410;2022-12-07T01:08:43;13.87;;;11.00;;
13388;SDS011;6764;53.250;10.410;2022-12-07T01:11:09;13.77;;;10.67;;
13388;SDS011;6764;53.250;10.410;2022-12-07T01:13:39;13.43;;;10.20;;
13388;SDS011;6764;53.250;10.410;2022-12-07T01:16:05;15.80;;;11.20;;
13388;SDS011;6764;53.250;10.410;2022-12-07T01:18:33;13.27;;;10.70;;
13388;SDS011;6764;53.250;10.410;2022-12-07T01:21:04;15.67;;;10.30;;
13388;SDS011;6764;53.250;10.410;2022-12-07T01:23:35;12.03;;;10.40;;
13388;SDS011;6764;53.250;10.410;2022-12-07T01:26:02;13.77;;;10.50;;
13388;SDS011;6764;53.250;10.410;2022-12-07T01:28:30;13.80;;;10.70;;
13388;SDS011;6764;53.250;10.410;2022-12-07T01:31:00;14.00;;;10.67;;
13388;SDS011;6764;53.250;10.410;2022-12-07T01:33:28;11.10;;;9.90;;
13388;SDS011;6764;53.250;10.410;2022-12-07T01:36:00;12.87;;;9.87;;
13388;SDS011;6764;53.250;10.410;2022-12-07T01:38:40;11.70;;;10.30;;
13388;SDS011;6764;53.250;10.410;2022-12-07T01:41:06;11.97;;;9.87;;
13388;SDS011;6764;53.250;10.410;2022-12-07T01:43:32;12.53;;;10.33;;
13388;SDS011;6764;53.250;10.410;2022-12-07T01:45:58;13.57;;;10.77;;
13388;SDS011;6764;53.250;10.410;2022-12-07T01:48:38;14.30;;;10.73;;
13388;SDS011;6764;53.250;10.410;2022-12-07T01:51:10;12.23;;;10.60;;
13388;SDS011;6764;53.250;10.410;2022-12-07T01:53:40;14.47;;;11.30;;
13388;SDS011;6764;53.250;10.410;2022-12-07T01:56:10;14.07;;;10.20;;
13388;SDS011;6764;53.250;10.410;2022-12-07T01:58:41;15.03;;;10.97;;
13388;SDS011;6764;53.250;10.410;2022-12-07T02:01:06;11.43;;;9.67;;
13388;SDS011;6764;53.250;10.410;2022-12-07T02:03:34;14.77;;;10.83;;
13388;SDS011;6764;53.250;10.410;2022-12-07T02:06:04;12.50;;;9.77;;
13388;SDS011;6764;53.250;10.410;2022-12-07T02:08:31;13.90;;;10.33;;
13388;SDS011;6764;53.250;10.410;2022-12-07T02:10:57;13.77;;;10.67;;
13388;SDS011;6764;53.250;10.410;2022-12-07T02:13:26;12.37;;;10.27;;
13388;SDS011;6764;53.250;10.410;2022-12-07T02:21:19;12.67;;;9.93;;
13388;SDS011;6764;53.250;10.410;2022-12-07T02:32:08;12.33;;;8.77;;
13388;SDS011;6764;53.250;10.410;2022-12-07T02:40:27;11.40;;;9.07;;
13388;SDS011;6764;53.250;10.410;2022-12-07T02:45:53;10.43;;;8.27;;
13388;SDS011;6764;53.250;10.410;2022-12-07T02:48:26;12.77;;;8.80;;
13388;SDS011;6764;53.250;10.410;2022-12-07T02:50:53;9.77;;;7.83;;
13388;SDS011;6764;53.250;10.410;2022-12-07T02:53:32;11.07;;;8.77;;
13388;SDS011;6764;53.250;10.410;2022-12-07T02:55:59;9.40;;;8.13;;
13388;SDS011;6764;53.250;10.410;2022-12-07T03:07:04;10.90;;;7.63;;
13388;SDS011;6764;53.250;10.410;2022-12-07T03:09:38;10.73;;;6.77;;
13388;SDS011;6764;53.250;10.410;2022-12-07T03:12:19;11.17;;;6.50;;
13388;SDS011;6764;53.250;10.410;2022-12-07T03:18:00;10.83;;;6.67;;
13388;SDS011;6764;53.250;10.410;2022-12-07T03:20:29;8.27;;;6.10;;
13388;SDS011;6764;53.250;10.410;2022-12-07T03:22:57;9.07;;;6.37;;
13388;SDS011;6764;53.250;10.410;2022-12-07T03:25:24;8.90;;;6.20;;
13388;SDS011;6764;53.250;10.410;2022-12-07T03:27:55;7.93;;;6.00;;
13388;SDS011;6764;53.250;10.410;2022-12-07T03:30:37;8.60;;;5.67;;
13388;SDS011;6764;53.250;10.410;2022-12-07T03:33:17;8.60;;;6.00;;
13388;SDS011;6764;53.250;10.410;2022-12-07T03:35:58;7.07;;;5.43;;
13388;SDS011;6764;53.250;10.410;2022-12-07T03:38:30;7.07;;;5.03;;
13388;SDS011;6764;53.250;10.410;2022-12-07T03:41:09;6.40;;;5.03;;
13388;SDS011;6764;53.250;10.410;2022-12-07T03:43:47;8.13;;;5.00;;
13388;SDS011;6764;53.250;10.410;2022-12-07T03:57:01;6.67;;;5.13;;
13388;SDS011;6764;53.250;10.410;2022-12-07T03:59:29;7.60;;;5.07;;
13388;SDS011;6764;53.250;10.410;2022-12-07T04:01:56;7.60;;;5.23;;
13388;SDS011;6764;53.250;10.410;2022-12-07T04:04:26;5.97;;;4.50;;
13388;SDS011;6764;53.250;10.410;2022-12-07T04:06:51;7.27;;;4.80;;
13388;SDS011;6764;53.250;10.410;2022-12-07T04:09:17;6.30;;;4.60;;
13388;SDS011;6764;53.250;10.410;2022-12-07T04:11:43;7.30;;;4.00;;
13388;SDS011;6764;53.250;10.410;2022-12-07T04:14:08;7.77;;;4.77;;
13388;SDS011;6764;53.250;10.410;2022-12-07T04:16:44;6.67;;;4.60;;
13388;SDS011;6764;53.250;10.410;2022-12-07T04:19:18;8.53;;;4.60;;
13388;SDS011;6764;53.250;10.410;2022-12-07T04:21:45;4.80;;;4.30;;
13388;SDS011;6764;53.250;10.410;2022-12-07T04:24:12;10.80;;;4.97;;
13388;SDS011;6764;53.250;10.410;2022-12-07T04:26:39;6.20;;;4.20;;
13388;SDS011;6764;53.250;10.410;2022-12-07T04:29:06;10.73;;;4.90;;
13388;SDS011;6764;53.250;10.410;2022-12-07T04:31:32;5.70;;;5.10;;
13388;SDS011;6764;53.250;10.410;2022-12-07T04:33:57;6.00;;;4.53;;
13388;SDS011;6764;53.250;10.410;2022-12-07T04:36:23;6.90;;;4.63;;
13388;SDS011;6764;53.250;10.410;2022-12-07T04:38:49;7.10;;;4.73;;
13388;SDS011;6764;53.250;10.410;2022-12-07T04:41:14;6.33;;;4.50;;
13388;SDS011;6764;53.250;10.410;2022-12-07T04:43:40;6.53;;;4.87;;
13388;SDS011;6764;53.250;10.410;2022-12-07T04:46:05;5.87;;;4.77;;
13388;SDS011;6764;53.250;10.410;2022-12-07T04:48:32;7.00;;;4.40;;
13388;SDS011;6764;53.250;10.410;2022-12-07T04:50:57;6.33;;;4.30;;
13388;SDS011;6764;53.250;10.410;2022-12-07T04:53:23;10.87;;;4.93;;
13388;SDS011;6764;53.250;10.410;2022-12-07T04:55:48;5.30;;;4.47;;
13388;SDS011;6764;53.250;10.410;2022-12-07T04:58:14;5.97;;;4.00;;
13388;SDS011;6764;53.250;10.410;2022-12-07T05:00:40;7.40;;;4.37;;
13388;SDS011;6764;53.250;10.410;2022-12-07T05:03:06;6.33;;;3.90;;
13388;SDS011;6764;53.250;10.410;2022-12-07T05:05:32;4.50;;;4.10;;
13388;SDS011;6764;53.250;10.410;2022-12-07T05:07:57;6.30;;;4.50;;
13388;SDS011;6764;53.250;10.410;2022-12-07T05:10:23;4.80;;;3.93;;
13388;SDS011;6764;53.250;10.410;2022-12-07T05:12:49;7.70;;;4.50;;
13388;SDS011;6764;53.250;10.410;2022-12-07T05:15:14;5.13;;;3.73;;
13388;SDS011;6764;53.250;10.410;2022-12-07T05:17:41;4.53;;;3.90;;
13388;SDS011;6764;53.250;10.410;2022-12-07T05:20:07;4.43;;;3.77;;
13388;SDS011;6764;53.250;10.410;2022-12-07T05:22:33;6.70;;;4.07;;
13388;SDS011;6764;53.250;10.410;2022-12-07T05:24:59;5.93;;;3.57;;
13388;SDS011;6764;53.250;10.410;2022-12-07T05:27:24;4.50;;;3.53;;
13388;SDS011;6764;53.250;10.410;2022-12-07T05:29:50;8.60;;;3.50;;
13388;SDS011;6764;53.250;10.410;2022-12-07T05:32:16;5.27;;;3.90;;
13388;SDS011;6764;53.250;10.410;2022-12-07T05:34:42;9.23;;;3.47;;
13388;SDS011;6764;53.250;10.410;2022-12-07T05:37:08;4.80;;;3.23;;
13388;SDS011;6764;53.250;10.410;2022-12-07T05:39:33;3.80;;;3.40;;
13388;SDS011;6764;53.250;10.410;2022-12-07T05:41:59;4.50;;;3.13;;
13388;SDS011;6764;53.250;10.410;2022-12-07T05:44:37;6.40;;;3.30;;
13388;SDS011;6764;53.250;10.410;2022-12-07T05:47:07;4.90;;;3.80;;
13388;SDS011;6764;53.250;10.410;2022-12-07T05:49:33;6.57;;;3.67;;
13388;SDS011;6764;53.250;10.410;2022-12-07T05:51:58;3.57;;;3.27;;
13388;SDS011;6764;53.250;10.410;2022-12-07T05:54:24;3.63;;;3.10;;
13388;SDS011;6764;53.250;10.410;2022-12-07T05:56:50;5.37;;;3.20;;
13388;SDS011;6764;53.250;10.410;2022-12-07T05:59:16;3.83;;;3.23;;
13388;SDS011;6764;53.250;10.410;2022-12-07T06:01:48;4.13;;;3.17;;
13388;SDS011;6764;53.250;10.410;2022-12-07T06:04:20;5.03;;;3.20;;
13388;SDS011;6764;53.250;10.410;2022-12-07T06:06:47;6.63;;;3.80;;
13388;SDS011;6764;53.250;10.410;2022-12-07T06:09:13;4.47;;;3.60;;
13388;SDS011;6764;53.250;10.410;2022-12-07T06:11:39;5.90;;;3.87;;
13388;SDS011;6764;53.250;10.410;2022-12-07T06:14:24;5.13;;;3.67;;
13388;SDS011;6764;53.250;10.410;2022-12-07T06:16:50;7.07;;;4.27;;
13388;SDS011;6764;53.250;10.410;2022-12-07T06:19:15;8.27;;;3.57;;
13388;SDS011;6764;53.250;10.410;2022-12-07T06:21:41;4.80;;;3.90;;
13388;SDS011;6764;53.250;10.410;2022-12-07T06:24:07;3.40;;;3.10;;
13388;SDS011;6764;53.250;10.410;2022-12-07T06:26:36;5.73;;;3.77;;
13388;SDS011;6764;53.250;10.410;2022-12-07T06:29:01;5.87;;;3.43;;
13388;SDS011;6764;53.250;10.410;2022-12-07T06:31:27;6.40;;;3.93;;
13388;SDS011;6764;53.250;10.410;2022-12-07T06:33:59;5.50;;;3.60;;
13388;SDS011;6764;53.250;10.410;2022-12-07T06:36:26;3.77;;;3.00;;
13388;SDS011;6764;53.250;10.410;2022-12-07T06:38:52;4.70;;;3.53;;
13388;SDS011;6764;53.250;10.410;2022-12-07T06:41:21;5.00;;;3.63;;
13388;SDS011;6764;53.250;10.410;2022-12-07T06:43:47;4.67;;;3.37;;
13388;SDS011;6764;53.250;10.410;2022-12-07T06:46:13;7.13;;;3.63;;
13388;SDS011;6764;53.250;10.410;2022-12-07T06:48:40;7.97;;;4.00;;
13388;SDS011;6764;53.250;10.410;2022-12-07T06:51:06;4.17;;;3.57;;
13388;SDS011;6764;53.250;10.410;2022-12-07T06:53:34;4.67;;;3.70;;
13388;SDS011;6764;53.250;10.410;2022-12-07T06:56:01;4.60;;;3.60;;
13388;SDS011;6764;53.250;10.410;2022-12-07T06:58:27;6.50;;;3.80;;
13388;SDS011;6764;53.250;10.410;2022-12-07T07:00:53;5.30;;;4.00;;
13388;SDS011;6764;53.250;10.410;2022-12-07T07:03:18;5.97;;;3.50;;
13388;SDS011;6764;53.250;10.410;2022-12-07T07:05:44;8.67;;;4.30;;
13388;SDS011;6764;53.250;10.410;2022-12-07T07:08:10;6.37;;;3.87;;
13388;SDS011;6764;53.250;10.410;2022-12-07T07:10:37;4.67;;;3.67;;
13388;SDS011;6764;53.250;10.410;2022-12-07T07:13:03;7.03;;;3.57;;
13388;SDS011;6764;53.250;10.410;2022-12-07T07:15:29;8.10;;;4.53;;
13388;SDS011;6764;53.250;10.410;2022-12-07T07:17:55;5.30;;;3.97;;
13388;SDS011;6764;53.250;10.410;2022-12-07T07:20:21;5.37;;;3.80;;
13388;SDS011;6764;53.250;10.410;2022-12-07T07:22:47;6.87;;;3.53;;
13388;SDS011;6764;53.250;10.410;2022-12-07T07:25:13;4.27;;;3.40;;
13388;SDS011;6764;53.250;10.410;2022-12-07T07:27:39;6.07;;;3.60;;
13388;SDS011;6764;53.250;10.410;2022-12-07T07:30:05;3.87;;;3.47;;
13388;SDS011;6764;53.250;10.410;2022-12-07T07:32:32;6.97;;;3.47;;
13388;SDS011;6764;53.250;10.410;2022-12-07T07:34:57;7.50;;;3.20;;
13388;SDS011;6764;53.250;10.410;2022-12-07T07:37:23;7.67;;;3.30;;
13388;SDS011;6764;53.250;10.410;2022-12-07T07:39:49;6.43;;;3.47;;
13388;SDS011;6764;53.250;10.410;2022-12-07T07:42:14;27.60;;;16.77;;
13388;SDS011;6764;53.250;10.410;2022-12-07T07:44:40;5.93;;;3.47;;
13388;SDS011;6764;53.250;10.410;2022-12-07T07:47:06;5.53;;;3.13;;
13388;SDS011;6764;53.250;10.410;2022-12-07T07:49:31;4.97;;;3.27;;
13388;SDS011;6764;53.250;10.410;2022-12-07T07:51:57;5.57;;;3.63;;
13388;SDS011;6764;53.250;10.410;2022-12-07T07:54:23;6.43;;;3.27;;
13388;SDS011;6764;53.250;10.410;2022-12-07T07:56:49;5.23;;;3.10;;
13388;SDS011;6764;53.250;10.410;2022-12-07T07:59:14;6.07;;;3.13;;
13388;SDS011;6764;53.250;10.410;2022-12-07T08:01:40;6.23;;;3.60;;
13388;SDS011;6764;53.250;10.410;2022-12-07T08:04:06;4.17;;;3.23;;
13388;SDS011;6764;53.250;10.410;2022-12-07T08:06:32;3.90;;;3.10;;
13388;SDS011;6764;53.250;10.410;2022-12-07T08:08:57;4.67;;;3.50;;
13388;SDS011;6764;53.250;10.410;2022-12-07T08:11:23;4.20;;;3.20;;
13388;SDS011;6764;53.250;10.410;2022-12-07T08:13:49;5.40;;;3.40;;
13388;SDS011;6764;53.250;10.410;2022-12-07T08:16:15;5.23;;;3.17;;
13388;SDS011;6764;53.250;10.410;2022-12-07T08:18:41;9.30;;;3.50;;
13388;SDS011;6764;53.250;10.410;2022-12-07T08:21:09;4.80;;;3.00;;
13388;SDS011;6764;53.250;10.410;2022-12-07T08:23:37;3.77;;;3.03;;
13388;SDS011;6764;53.250;10.410;2022-12-07T08:26:04;4.93;;;3.67;;
13388;SDS011;6764;53.250;10.410;2022-12-07T08:28:31;4.70;;;3.10;;
13388;SDS011;6764;53.250;10.410;2022-12-07T08:31:10;7.73;;;3.63;;
13388;SDS011;6764;53.250;10.410;2022-12-07T08:33:38;4.67;;;3.50;;
13388;SDS011;6764;53.250;10.410;2022-12-07T08:36:05;4.60;;;3.90;;
13388;SDS011;6764;53.250;10.410;2022-12-07T08:38:36;5.30;;;3.80;;
13388;SDS011;6764;53.250;10.410;2022-12-07T08:41:03;4.47;;;3.17;;
13388;SDS011;6764;53.250;10.410;2022-12-07T08:43:29;4.67;;;3.07;;
13388;SDS011;6764;53.250;10.410;2022-12-07T08:48:40;4.17;;;3.23;;
13388;SDS011;6764;53.250;10.410;2022-12-07T08:51:16;3.23;;;2.70;;
13388;SDS011;6764;53.250;10.410;2022-12-07T08:53:42;6.27;;;4.13;;
13388;SDS011;6764;53.250;10.410;2022-12-07T08:56:09;7.37;;;4.70;;
13388;SDS011;6764;53.250;10.410;2022-12-07T08:58:35;5.40;;;3.83;;
13388;SDS011;6764;53.250;10.410;2022-12-07T09:01:03;3.83;;;3.20;;
13388;SDS011;6764;53.250;10.410;2022-12-07T09:03:29;3.70;;;2.97;;
13388;SDS011;6764;53.250;10.410;2022-12-07T09:05:55;5.53;;;3.00;;
13388;SDS011;6764;53.250;10.410;2022-12-07T09:08:22;3.30;;;2.60;;
13388;SDS011;6764;53.250;10.410;2022-12-07T09:10:51;4.30;;;2.87;;
13388;SDS011;6764;53.250;10.410;2022-12-07T09:13:17;5.63;;;2.80;;
13388;SDS011;6764;53.250;10.410;2022-12-07T09:15:42;5.13;;;3.07;;
13388;SDS011;6764;53.250;10.410;2022-12-07T09:18:08;6.23;;;3.23;;
13388;SDS011;6764;53.250;10.410;2022-12-07T09:20:33;4.10;;;3.00;;
13388;SDS011;6764;53.250;10.410;2022-12-07T09:22:59;5.53;;;3.10;;
13388;SDS011;6764;53.250;10.410;2022-12-07T09:25:25;9.33;;;3.40;;
13388;SDS011;6764;53.250;10.410;2022-12-07T09:27:57;4.63;;;3.07;;
13388;SDS011;6764;53.250;10.410;2022-12-07T09:30:24;3.23;;;2.70;;
13388;SDS011;6764;53.250;10.410;2022-12-07T09:32:52;6.73;;;3.83;;
13388;SDS011;6764;53.250;10.410;2022-12-07T09:35:21;5.37;;;3.13;;
13388;SDS011;6764;53.250;10.410;2022-12-07T09:37:48;4.43;;;2.97;;
13388;SDS011;6764;53.250;10.410;2022-12-07T09:40:15;7.60;;;3.17;;
13388;SDS011;6764;53.250;10.410;2022-12-07T09:42:44;5.93;;;2.70;;
13388;SDS011;6764;53.250;10.410;2022-12-07T09:45:22;4.27;;;2.70;;
13388;SDS011;6764;53.250;10.410;2022-12-07T09:47:50;4.43;;;3.00;;
13388;SDS011;6764;53.250;10.410;2022-12-07T09:50:17;7.47;;;3.30;;
13388;SDS011;6764;53.250;10.410;2022-12-07T09:52:46;5.20;;;2.67;;
13388;SDS011;6764;53.250;10.410;2022-12-07T09:55:13;5.57;;;3.03;;
13388;SDS011;6764;53.250;10.410;2022-12-07T09:57:41;5.23;;;3.03;;
13388;SDS011;6764;53.250;10.410;2022-12-07T10:00:20;6.40;;;3.10;;
13388;SDS011;6764;53.250;10.410;2022-12-07T10:03:08;6.43;;;3.30;;
13388;SDS011;6764;53.250;10.410;2022-12-07T10:05:36;5.90;;;2.97;;
13388;SDS011;6764;53.250;10.410;2022-12-07T10:08:07;8.10;;;3.77;;
13388;SDS011;6764;53.250;10.410;2022-12-07T10:10:37;5.97;;;2.97;;
13388;SDS011;6764;53.250;10.410;2022-12-07T10:13:09;6.23;;;2.97;;
13388;SDS011;6764;53.250;10.410;2022-12-07T10:15:43;7.40;;;2.73;;
13388;SDS011;6764;53.250;10.410;2022-12-07T10:18:25;5.20;;;3.00;;
13388;SDS011;6764;53.250;10.410;2022-12-07T10:23:36;6.20;;;3.10;;
13388;SDS011;6764;53.250;10.410;2022-12-07T10:26:20;7.07;;;2.83;;
13388;SDS011;6764;53.250;10.410;2022-12-07T10:28:54;6.53;;;2.80;;
13388;SDS011;6764;53.250;10.410;2022-12-07T10:31:23;5.13;;;2.63;;
13388;SDS011;6764;53.250;10.410;2022-12-07T10:39:04;6.83;;;2.60;;
13388;SDS011;6764;53.250;10.410;2022-12-07T10:41:53;3.67;;;2.07;;
13388;SDS011;6764;53.250;10.410;2022-12-07T10:44:21;9.20;;;2.80;;
13388;SDS011;6764;53.250;10.410;2022-12-07T11:01:03;5.43;;;3.10;;
13388;SDS011;6764;53.250;10.410;2022-12-07T11:09:08;3.17;;;2.17;;
13388;SDS011;6764;53.250;10.410;2022-12-07T11:17:42;6.37;;;2.70;;
13388;SDS011;6764;53.250;10.410;2022-12-07T11:26:13;3.27;;;2.23;;
13388;SDS011;6764;53.250;10.410;2022-12-07T11:29:02;6.43;;;2.40;;
13388;SDS011;6764;53.250;10.410;2022-12-07T11:31:37;4.30;;;2.60;;
13388;SDS011;6764;53.250;10.410;2022-12-07T11:36:45;4.13;;;2.30;;
13388;SDS011;6764;53.250;10.410;2022-12-07T11:39:20;2.43;;;2.00;;
13388;SDS011;6764;53.250;10.410;2022-12-07T11:42:04;4.10;;;2.40;;
13388;SDS011;6764;53.250;10.410;2022-12-07T11:44:39;3.27;;;2.27;;
13388;SDS011;6764;53.250;10.410;2022-12-07T11:47:38;5.10;;;2.63;;
13388;SDS011;6764;53.250;10.410;2022-12-07T11:53:00;3.83;;;2.27;;
13388;SDS011;6764;53.250;10.410;2022-12-07T11:58:15;5.43;;;2.47;;
13388;SDS011;6764;53.250;10.410;2022-12-07T12:00:45;5.37;;;2.30;;
13388;SDS011;6764;53.250;10.410;2022-12-07T12:03:12;6.77;;;2.70;;
13388;SDS011;6764;53.250;10.410;2022-12-07T12:05:44;5.87;;;2.70;;
13388;SDS011;6764;53.250;10.410;2022-12-07T12:08:15;8.13;;;3.60;;
13388;SDS011;6764;53.250;10.410;2022-12-07T12:21:30;4.87;;;3.10;;
13388;SDS011;6764;53.250;10.410;2022-12-07T12:24:00;5.40;;;2.33;;
13388;SDS011;6764;53.250;10.410;2022-12-07T12:26:33;5.63;;;2.50;;
13388;SDS011;6764;53.250;10.410;2022-12-07T12:29:02;6.27;;;2.67;;
13388;SDS011;6764;53.250;10.410;2022-12-07T12:31:33;6.10;;;2.30;;
13388;SDS011;6764;53.250;10.410;2022-12-07T12:34:10;7.50;;;3.50;;
13388;SDS011;6764;53.250;10.410;2022-12-07T12:36:55;6.40;;;3.10;;
13388;SDS011;6764;53.250;10.410;2022-12-07T12:39:20;4.80;;;2.50;;
13388;SDS011;6764;53.250;10.410;2022-12-07T12:46:57;4.70;;;2.93;;
13388;SDS011;6764;53.250;10.410;2022-12-07T12:57:33;4.93;;;2.97;;
13388;SDS011;6764;53.250;10.410;2022-12-07T13:00:01;6.30;;;3.13;;
13388;SDS011;6764;53.250;10.410;2022-12-07T13:02:52;7.93;;;2.90;;
13388;SDS011;6764;53.250;10.410;2022-12-07T13:05:23;4.30;;;2.27;;
13388;SDS011;6764;53.250;10.410;2022-12-07T13:07:53;13.50;;;4.53;;
13388;SDS011;6764;53.250;10.410;2022-12-07T13:36:59;5.40;;;2.50;;
13388;SDS011;6764;53.250;10.410;2022-12-07T13:39:27;6.70;;;2.87;;
13388;SDS011;6764;53.250;10.410;2022-12-07T13:41:57;9.60;;;4.23;;
13388;SDS011;6764;53.250;10.410;2022-12-07T13:44:25;7.23;;;3.77;;
13388;SDS011;6764;53.250;10.410;2022-12-07T13:52:50;15.60;;;5.57;;
13388;SDS011;6764;53.250;10.410;2022-12-07T13:55:20;6.30;;;2.87;;
13388;SDS011;6764;53.250;10.410;2022-12-07T13:57:50;8.33;;;2.70;;
13388;SDS011;6764;53.250;10.410;2022-12-07T14:00:21;9.83;;;2.97;;
13388;SDS011;6764;53.250;10.410;2022-12-07T14:02:58;5.23;;;2.90;;
13388;SDS011;6764;53.250;10.410;2022-12-07T14:05:44;4.53;;;2.93;;
13388;SDS011;6764;53.250;10.410;2022-12-07T14:10:52;4.40;;;2.20;;
13388;SDS011;6764;53.250;10.410;2022-12-07T14:13:37;5.90;;;2.77;;
13388;SDS011;6764;53.250;10.410;2022-12-07T14:16:17;7.90;;;2.77;;
13388;SDS011;6764;53.250;10.410;2022-12-07T14:18:46;4.33;;;2.83;;
13388;SDS011;6764;53.250;10.410;2022-12-07T14:23:38;6.87;;;2.73;;
13388;SDS011;6764;53.250;10.410;2022-12-07T14:26:10;9.23;;;3.07;;
13388;SDS011;6764;53.250;10.410;2022-12-07T14:28:42;7.17;;;3.03;;
13388;SDS011;6764;53.250;10.410;2022-12-07T14:31:12;6.80;;;2.70;;
13388;SDS011;6764;53.250;10.410;2022-12-07T14:33:40;8.43;;;3.90;;
13388;SDS011;6764;53.250;10.410;2022-12-07T14:36:08;4.73;;;2.50;;
13388;SDS011;6764;53.250;10.410;2022-12-07T14:38:35;5.17;;;2.63;;
13388;SDS011;6764;53.250;10.410;2022-12-07T14:41:03;6.73;;;2.53;;
13388;SDS011;6764;53.250;10.410;2022-12-07T14:43:49;8.13;;;3.20;;
13388;SDS011;6764;53.250;10.410;2022-12-07T14:46:15;7.57;;;3.17;;
13388;SDS011;6764;53.250;10.410;2022-12-07T14:48:40;6.23;;;3.50;;
13388;SDS011;6764;53.250;10.410;2022-12-07T14:51:07;6.30;;;3.27;;
13388;SDS011;6764;53.250;10.410;2022-12-07T14:53:38;10.67;;;3.50;;
13388;SDS011;6764;53.250;10.410;2022-12-07T14:56:06;54.90;;;31.37;;
13388;SDS011;6764;53.250;10.410;2022-12-07T14:58:33;10.97;;;3.47;;
13388;SDS011;6764;53.250;10.410;2022-12-07T15:00:59;6.33;;;3.23;;
13388;SDS011;6764;53.250;10.410;2022-12-07T15:03:25;8.87;;;3.10;;
13388;SDS011;6764;53.250;10.410;2022-12-07T15:05:51;10.17;;;3.90;;
13388;SDS011;6764;53.250;10.410;2022-12-07T15:08:16;6.70;;;3.40;;
13388;SDS011;6764;53.250;10.410;2022-12-07T15:10:43;7.43;;;4.00;;
13388;SDS011;6764;53.250;10.410;2022-12-07T15:13:09;8.93;;;4.03;;
13388;SDS011;6764;53.250;10.410;2022-12-07T15:15:53;12.40;;;4.00;;
13388;SDS011;6764;53.250;10.410;2022-12-07T15:18:20;13.00;;;4.10;;
13388;SDS011;6764;53.250;10.410;2022-12-07T15:20:47;11.43;;;4.50;;
13388;SDS011;6764;53.250;10.410;2022-12-07T15:23:13;8.27;;;3.43;;
13388;SDS011;6764;53.250;10.410;2022-12-07T15:25:40;6.43;;;3.20;;
13388;SDS011;6764;53.250;10.410;2022-12-07T15:28:10;6.17;;;3.03;;
13388;SDS011;6764;53.250;10.410;2022-12-07T15:30:39;5.93;;;3.03;;
13388;SDS011;6764;53.250;10.410;2022-12-07T15:33:07;4.33;;;3.00;;
13388;SDS011;6764;53.250;10.410;2022-12-07T15:35:33;4.23;;;2.83;;
13388;SDS011;6764;53.250;10.410;2022-12-07T15:38:03;5.47;;;3.07;;
13388;SDS011;6764;53.250;10.410;2022-12-07T15:40:28;4.47;;;3.23;;
13388;SDS011;6764;53.250;10.410;2022-12-07T15:42:54;7.07;;;3.40;;
13388;SDS011;6764;53.250;10.410;2022-12-07T15:45:20;8.43;;;3.50;;
13388;SDS011;6764;53.250;10.410;2022-12-07T15:47:45;7.13;;;3.73;;
13388;SDS011;6764;53.250;10.410;2022-12-07T15:50:12;9.43;;;4.27;;
13388;SDS011;6764;53.250;10.410;2022-12-07T15:52:39;5.00;;;3.70;;
13388;SDS011;6764;53.250;10.410;2022-12-07T15:55:05;7.57;;;4.10;;
13388;SDS011;6764;53.250;10.410;2022-12-07T15:57:32;8.60;;;3.43;;
13388;SDS011;6764;53.250;10.410;2022-12-07T15:59:59;8.23;;;3.80;;
13388;SDS011;6764;53.250;10.410;2022-12-07T16:02:25;10.87;;;4.53;;
13388;SDS011;6764;53.250;10.410;2022-12-07T16:04:51;7.23;;;3.70;;
13388;SDS011;6764;53.250;10.410;2022-12-07T16:07:18;8.03;;;4.07;;
13388;SDS011;6764;53.250;10.410;2022-12-07T16:09:44;11.63;;;4.23;;
13388;SDS011;6764;53.250;10.410;2022-12-07T16:12:11;9.13;;;3.90;;
13388;SDS011;6764;53.250;10.410;2022-12-07T16:14:38;7.53;;;4.13;;
13388;SDS011;6764;53.250;10.410;2022-12-07T16:17:05;8.13;;;3.93;;
13388;SDS011;6764;53.250;10.410;2022-12-07T16:19:31;7.80;;;3.73;;
13388;SDS011;6764;53.250;10.410;2022-12-07T16:21:57;9.40;;;3.67;;
13388;SDS011;6764;53.250;10.410;2022-12-07T16:24:24;9.20;;;4.27;;
13388;SDS011;6764;53.250;10.410;2022-12-07T16:26:50;6.47;;;3.90;;
13388;SDS011;6764;53.250;10.410;2022-12-07T16:29:16;9.03;;;5.00;;
13388;SDS011;6764;53.250;10.410;2022-12-07T16:31:43;7.80;;;4.37;;
13388;SDS011;6764;53.250;10.410;2022-12-07T16:34:09;9.87;;;4.97;;
13388;SDS011;6764;53.250;10.410;2022-12-07T16:36:34;11.77;;;4.73;;
13388;SDS011;6764;53.250;10.410;2022-12-07T16:39:00;7.70;;;4.90;;
13388;SDS011;6764;53.250;10.410;2022-12-07T16:41:26;6.77;;;4.30;;
13388;SDS011;6764;53.250;10.410;2022-12-07T16:43:51;9.40;;;4.93;;
13388;SDS011;6764;53.250;10.410;2022-12-07T16:46:17;10.67;;;4.80;;
13388;SDS011;6764;53.250;10.410;2022-12-07T16:48:43;9.10;;;5.30;;
13388;SDS011;6764;53.250;10.410;2022-12-07T16:51:10;9.67;;;5.63;;
13388;SDS011;6764;53.250;10.410;2022-12-07T16:53:37;11.83;;;6.43;;
13388;SDS011;6764;53.250;10.410;2022-12-07T16:56:05;9.80;;;5.63;;
13388;SDS011;6764;53.250;10.410;2022-12-07T16:58:39;7.80;;;5.47;;
13388;SDS011;6764;53.250;10.410;2022-12-07T17:01:10;7.23;;;4.10;;
13388;SDS011;6764;53.250;10.410;2022-12-07T17:03:37;8.97;;;4.97;;
13388;SDS011;6764;53.250;10.410;2022-12-07T17:06:02;9.93;;;6.07;;
13388;SDS011;6764;53.250;10.410;2022-12-07T17:08:28;8.70;;;4.70;;
13388;SDS011;6764;53.250;10.410;2022-12-07T17:10:54;10.87;;;5.33;;
13388;SDS011;6764;53.250;10.410;2022-12-07T17:13:19;7.97;;;4.90;;
13388;SDS011;6764;53.250;10.410;2022-12-07T17:16:05;5.50;;;4.20;;
13388;SDS011;6764;53.250;10.410;2022-12-07T17:18:32;7.30;;;4.83;;
13388;SDS011;6764;53.250;10.410;2022-12-07T17:21:03;12.90;;;5.67;;
13388;SDS011;6764;53.250;10.410;2022-12-07T17:23:34;7.93;;;5.27;;
13388;SDS011;6764;53.250;10.410;2022-12-07T17:26:11;8.80;;;5.33;;
13388;SDS011;6764;53.250;10.410;2022-12-07T17:28:38;6.87;;;4.87;;